sensor_id;sensor_type;location;lat;lon;timestamp;pressure;altitude;pressure_sealevel;temperature;humidity
63088;BME280;49173;43.164;27.786;2023-08-08T00:02:09;100056.13;;;23.65;43.75
63088;BME280;49173;43.164;27.786;2023-08-08T00:04:35;100055.63;;;23.62;43.76
63088;BME280;49173;43.164;27.786;2023-08-08T00:07:01;100051.00;;;23.62;43.44
63088;BME280;49173;43.164;27.786;2023-08-08T00:09:27;100045.69;;;23.61;43.60
63088;BME280;49173;43.164;27.786;2023-08-08T00:11:53;100052.34;;;23.58;43.56
63088;BME280;49173;43.164;27.786;2023-08-08T00:14:19;100049.78;;;23.56;43.45
63088;BME280;49173;43.164;27.786;2023-08-08T00:16:44;100046.00;;;23.57;43.37
63088;BME280;49173;43.164;27.786;2023-08-08T00:19:10;100049.78;;;23.56;43.65
63088;BME280;49173;43.164;27.786;2023-08-08T00:21:36;100053.75;;;23.54;43.86
63088;BME280;49173;43.164;27.786;2023-08-08T00:24:02;100046.91;;;23.50;44.01
63088;BME280;49173;43.164;27.786;2023-08-08T00:26:28;100050.31;;;23.52;43.45
63088;BME280;49173;43.164;27.786;2023-08-08T00:28:53;100046.38;;;23.54;43.88
63088;BME280;49173;43.164;27.786;2023-08-08T00:31:19;100046.53;;;23.53;43.75
63088;BME280;49173;43.164;27.786;2023-08-08T00:33:45;100050.31;;;23.52;43.70
63088;BME280;49173;43.164;27.786;2023-08-08T00:36:11;100053.22;;;23.50;44.10
63088;BME280;49173;43.164;27.786;2023-08-08T00:38:37;100046.03;;;23.49;43.99
63088;BME280;49173;43.164;27.786;2023-08-08T00:41:02;100044.16;;;23.50;44.00
63088;BME280;49173;43.164;27.786;2023-08-08T00:43:30;100052.84;;;23.53;43.79
63088;BME280;49173;43.164;27.786;2023-08-08T00:45:56;100046.72;;;23.51;43.94
63088;BME280;49173;43.164;27.786;2023-08-08T00:48:23;100054.75;;;23.53;44.18
63088;BME280;49173;43.164;27.786;2023-08-08T00:50:50;100046.91;;;23.50;44.27
63088;BME280;49173;43.164;27.786;2023-08-08T00:53:18;100051.00;;;23.46;44.32
63088;BME280;49173;43.164;27.786;2023-08-08T00:55:45;100056.31;;;23.39;44.23
63088;BME280;49173;43.164;27.786;2023-08-08T00:58:12;100055.31;;;23.32;44.56
63088;BME280;49173;43.164;27.786;2023-08-08T01:00:39;100062.38;;;23.26;44.51
63088;BME280;49173;43.164;27.786;2023-08-08T01:03:05;100060.31;;;23.20;44.85
63088;BME280;49173;43.164;27.786;2023-08-08T01:05:36;100064.41;;;23.24;45.05
63088;BME280;49173;43.164;27.786;2023-08-08T01:08:05;100062.50;;;23.25;45.14
63088;BME280;49173;43.164;27.786;2023-08-08T01:10:36;100059.63;;;23.26;45.44
63088;BME280;49173;43.164;27.786;2023-08-08T01:13:18;100064.91;;;23.28;45.46
63088;BME280;49173;43.164;27.786;2023-08-08T01:15:46;100071.75;;;23.32;46.24
63088;BME280;49173;43.164;27.786;2023-08-08T01:18:13;100066.97;;;23.34;46.29
63088;BME280;49173;43.164;27.786;2023-08-08T01:20:40;100065.25;;;23.41;45.93
63088;BME280;49173;43.164;27.786;2023-08-08T01:25:43;100068.81;;;23.50;46.10
63088;BME280;49173;43.164;27.786;2023-08-08T01:28:09;100069.66;;;23.50;46.03
63088;BME280;49173;43.164;27.786;2023-08-08T01:30:35;100077.53;;;23.53;46.22
63088;BME280;49173;43.164;27.786;2023-08-08T01:33:01;100068.44;;;23.53;46.42
63088;BME280;49173;43.164;27.786;2023-08-08T01:35:30;100070.00;;;23.55;46.14
63088;BME280;49173;43.164;27.786;2023-08-08T01:38:04;100061.25;;;23.52;46.52
63088;BME280;49173;43.164;27.786;2023-08-08T01:40:35;100064.69;;;23.46;46.70
63088;BME280;49173;43.164;27.786;2023-08-08T01:43:03;100067.44;;;23.46;46.99
63088;BME280;49173;43.164;27.786;2023-08-08T01:45:29;100060.06;;;23.46;46.73
63088;BME280;49173;43.164;27.786;2023-08-08T01:47:55;100064.03;;;23.44;47.29
63088;BME280;49173;43.164;27.786;2023-08-08T01:50:21;100073.28;;;23.43;47.21
63088;BME280;49173;43.164;27.786;2023-08-08T01:52:47;100070.53;;;23.43;47.40
63088;BME280;49173;43.164;27.786;2023-08-08T01:55:13;100059.75;;;23.41;47.70
63088;BME280;49173;43.164;27.786;2023-08-08T01:57:39;100065.41;;;23.48;47.65
63088;BME280;49173;43.164;27.786;2023-08-08T02:00:06;100067.44;;;23.46;47.44
63088;BME280;49173;43.164;27.786;2023-08-08T02:02:32;100066.59;;;23.45;47.79
63088;BME280;49173;43.164;27.786;2023-08-08T02:04:59;100071.91;;;23.47;47.59
63088;BME280;49173;43.164;27.786;2023-08-08T02:07:24;100062.66;;;23.48;47.90
63088;BME280;49173;43.164;27.786;2023-08-08T02:09:50;100061.81;;;23.47;47.69
63088;BME280;49173;43.164;27.786;2023-08-08T02:12:16;100062.31;;;23.43;48.01
63088;BME280;49173;43.164;27.786;2023-08-08T02:14:42;100067.28;;;23.39;47.85
63088;BME280;49173;43.164;27.786;2023-08-08T02:17:08;100074.66;;;23.39;48.05
63088;BME280;49173;43.164;27.786;2023-08-08T02:19:34;100067.63;;;23.36;48.47
63088;BME280;49173;43.164;27.786;2023-08-08T02:21:59;100071.22;;;23.37;48.53
63088;BME280;49173;43.164;27.786;2023-08-08T02:24:25;100076.34;;;23.40;48.27
63088;BME280;49173;43.164;27.786;2023-08-08T02:26:51;100076.53;;;23.38;48.53
63088;BME280;49173;43.164;27.786;2023-08-08T02:29:18;100078.41;;;23.38;48.46
63088;BME280;49173;43.164;27.786;2023-08-08T02:31:44;100090.75;;;23.34;48.73
63088;BME280;49173;43.164;27.786;2023-08-08T02:34:09;100083.72;;;23.31;48.95
63088;BME280;49173;43.164;27.786;2023-08-08T02:36:35;100094.38;;;23.26;49.10
63088;BME280;49173;43.164;27.786;2023-08-08T02:39:01;100094.03;;;23.21;49.29
63088;BME280;49173;43.164;27.786;2023-08-08T02:41:28;100103.78;;;23.15;49.72
63088;BME280;49173;43.164;27.786;2023-08-08T02:43:54;100096.78;;;23.13;49.72
63088;BME280;49173;43.164;27.786;2023-08-08T02:46:20;100103.09;;;23.13;49.96
63088;BME280;49173;43.164;27.786;2023-08-08T02:48:46;100093.69;;;23.08;49.77
63088;BME280;49173;43.164;27.786;2023-08-08T02:51:11;100102.41;;;23.03;50.49
63088;BME280;49173;43.164;27.786;2023-08-08T02:53:37;100107.56;;;22.98;50.53
63088;BME280;49173;43.164;27.786;2023-08-08T02:56:03;100109.59;;;22.96;51.00
63088;BME280;49173;43.164;27.786;2023-08-08T02:58:33;100111.28;;;22.97;50.73
63088;BME280;49173;43.164;27.786;2023-08-08T03:00:59;100115.91;;;22.96;51.08
63088;BME280;49173;43.164;27.786;2023-08-08T03:03:24;100123.09;;;22.89;51.18
63088;BME280;49173;43.164;27.786;2023-08-08T03:05:50;100127.38;;;22.92;51.24
63088;BME280;49173;43.164;27.786;2023-08-08T03:08:16;100127.88;;;22.87;51.24
63088;BME280;49173;43.164;27.786;2023-08-08T03:10:42;100133.53;;;22.86;51.81
63088;BME280;49173;43.164;27.786;2023-08-08T03:13:08;100136.41;;;22.84;52.12
63088;BME280;49173;43.164;27.786;2023-08-08T03:15:33;100130.81;;;22.86;51.96
63088;BME280;49173;43.164;27.786;2023-08-08T03:18:00;100135.06;;;22.88;52.02
63088;BME280;49173;43.164;27.786;2023-08-08T03:20:26;100137.63;;;22.90;52.09
63088;BME280;49173;43.164;27.786;2023-08-08T03:22:52;100136.78;;;22.89;51.92
63088;BME280;49173;43.164;27.786;2023-08-08T03:25:18;100140.72;;;22.87;52.36
63088;BME280;49173;43.164;27.786;2023-08-08T03:27:44;100134.53;;;22.85;52.16
63088;BME280;49173;43.164;27.786;2023-08-08T03:30:10;100144.31;;;22.87;52.37
63088;BME280;49173;43.164;27.786;2023-08-08T03:32:37;100144.47;;;22.86;52.48
63088;BME280;49173;43.164;27.786;2023-08-08T03:35:03;100131.66;;;22.86;52.54
63088;BME280;49173;43.164;27.786;2023-08-08T03:37:30;100143.78;;;22.84;52.32
63088;BME280;49173;43.164;27.786;2023-08-08T03:39:55;100146.66;;;22.82;52.71
63088;BME280;49173;43.164;27.786;2023-08-08T03:42:21;100156.56;;;22.83;52.87
63088;BME280;49173;43.164;27.786;2023-08-08T03:44:47;100149.78;;;22.87;52.83
63088;BME280;49173;43.164;27.786;2023-08-08T03:47:13;100154.53;;;22.85;52.51
63088;BME280;49173;43.164;27.786;2023-08-08T03:49:38;100160.19;;;22.84;52.72
63088;BME280;49173;43.164;27.786;2023-08-08T03:52:04;100158.31;;;22.84;52.64
63088;BME280;49173;43.164;27.786;2023-08-08T03:54:30;100169.13;;;22.86;53.11
63088;BME280;49173;43.164;27.786;2023-08-08T03:56:56;100173.38;;;22.88;52.81
63088;BME280;49173;43.164;27.786;2023-08-08T03:59:22;100183.47;;;22.88;53.00
63088;BME280;49173;43.164;27.786;2023-08-08T04:01:47;100179.19;;;22.85;53.06
63088;BME280;49173;43.164;27.786;2023-08-08T04:04:14;100184.16;;;22.90;53.32
63088;BME280;49173;43.164;27.786;2023-08-08T04:06:40;100191.03;;;22.94;53.19
63088;BME280;49173;43.164;27.786;2023-08-08T04:09:05;100193.75;;;22.94;53.19
63088;BME280;49173;43.164;27.786;2023-08-08T04:11:33;100184.00;;;22.91;53.27
63088;BME280;49173;43.164;27.786;2023-08-08T04:14:01;100198.56;;;22.92;52.86
63088;BME280;49173;43.164;27.786;2023-08-08T04:16:28;100196.66;;;22.92;54.08
63088;BME280;49173;43.164;27.786;2023-08-08T04:18:53;100206.75;;;22.92;53.87
63088;BME280;49173;43.164;27.786;2023-08-08T04:21:19;100199.59;;;22.91;53.76
63088;BME280;49173;43.164;27.786;2023-08-08T04:23:45;100207.06;;;22.89;54.17
63088;BME280;49173;43.164;27.786;2023-08-08T04:26:10;100199.22;;;22.94;53.93
63088;BME280;49173;43.164;27.786;2023-08-08T04:28:36;100196.31;;;22.95;53.85
63088;BME280;49173;43.164;27.786;2023-08-08T04:31:02;100205.75;;;23.01;54.13
63088;BME280;49173;43.164;27.786;2023-08-08T04:33:28;100207.63;;;23.00;53.89
63088;BME280;49173;43.164;27.786;2023-08-08T04:35:53;100212.59;;;23.05;53.86
63088;BME280;49173;43.164;27.786;2023-08-08T04:38:19;100203.00;;;23.09;53.82
63088;BME280;49173;43.164;27.786;2023-08-08T04:40:45;100213.09;;;23.09;53.77
63088;BME280;49173;43.164;27.786;2023-08-08T04:43:11;100226.81;;;23.09;53.76
63088;BME280;49173;43.164;27.786;2023-08-08T04:45:36;100225.78;;;23.10;53.77
63088;BME280;49173;43.164;27.786;2023-08-08T04:48:02;100223.22;;;23.08;54.00
63088;BME280;49173;43.164;27.786;2023-08-08T04:50:28;100233.13;;;23.09;53.89
63088;BME280;49173;43.164;27.786;2023-08-08T04:52:54;100234.84;;;23.10;53.81
63088;BME280;49173;43.164;27.786;2023-08-08T04:55:20;100232.09;;;23.10;54.06
63088;BME280;49173;43.164;27.786;2023-08-08T04:57:47;100244.44;;;23.14;53.60
63088;BME280;49173;43.164;27.786;2023-08-08T05:00:14;100244.75;;;23.11;53.91
63088;BME280;49173;43.164;27.786;2023-08-08T05:02:40;100237.25;;;23.13;53.61
63088;BME280;49173;43.164;27.786;2023-08-08T05:05:07;100249.91;;;23.14;53.81
63088;BME280;49173;43.164;27.786;2023-08-08T05:07:33;100242.38;;;23.16;53.71
63088;BME280;49173;43.164;27.786;2023-08-08T05:10:02;100246.81;;;23.17;54.01
63088;BME280;49173;43.164;27.786;2023-08-08T05:12:28;100244.81;;;23.19;54.19
63088;BME280;49173;43.164;27.786;2023-08-08T05:14:53;100250.09;;;23.21;54.09
63088;BME280;49173;43.164;27.786;2023-08-08T05:17:20;100253.69;;;23.21;54.05
63088;BME280;49173;43.164;27.786;2023-08-08T05:19:45;100261.25;;;23.27;53.57
63088;BME280;49173;43.164;27.786;2023-08-08T05:22:11;100262.59;;;23.32;53.67
63088;BME280;49173;43.164;27.786;2023-08-08T05:24:37;100277.69;;;23.36;53.39
63088;BME280;49173;43.164;27.786;2023-08-08T05:27:03;100286.94;;;23.43;53.46
63088;BME280;49173;43.164;27.786;2023-08-08T05:29:29;100288.63;;;23.44;53.45
63088;BME280;49173;43.164;27.786;2023-08-08T05:31:55;100296.84;;;23.44;53.25
63088;BME280;49173;43.164;27.786;2023-08-08T05:34:24;100302.03;;;23.47;52.89
63088;BME280;49173;43.164;27.786;2023-08-08T05:36:50;100301.84;;;23.48;53.30
63088;BME280;49173;43.164;27.786;2023-08-08T05:39:15;100311.94;;;23.48;53.32
63088;BME280;49173;43.164;27.786;2023-08-08T05:41:41;100311.94;;;23.48;52.89
63088;BME280;49173;43.164;27.786;2023-08-08T05:44:07;100316.22;;;23.42;53.14
63088;BME280;49173;43.164;27.786;2023-08-08T05:46:33;100318.94;;;23.42;53.16
63088;BME280;49173;43.164;27.786;2023-08-08T05:48:59;100319.44;;;23.46;53.02
63088;BME280;49173;43.164;27.786;2023-08-08T05:51:26;100323.56;;;23.42;53.15
63088;BME280;49173;43.164;27.786;2023-08-08T05:53:52;100331.25;;;23.38;53.45
63088;BME280;49173;43.164;27.786;2023-08-08T05:56:18;100335.19;;;23.36;53.47
63088;BME280;49173;43.164;27.786;2023-08-08T05:58:44;100344.09;;;23.38;53.49
63088;BME280;49173;43.164;27.786;2023-08-08T06:01:10;100349.25;;;23.41;53.48
63088;BME280;49173;43.164;27.786;2023-08-08T06:03:37;100340.00;;;23.42;53.43
63088;BME280;49173;43.164;27.786;2023-08-08T06:06:03;100342.56;;;23.43;53.66
63088;BME280;49173;43.164;27.786;2023-08-08T06:08:30;100361.25;;;23.48;53.83
63088;BME280;49173;43.164;27.786;2023-08-08T06:10:57;100359.19;;;23.50;53.45
63088;BME280;49173;43.164;27.786;2023-08-08T06:13:23;100356.81;;;23.55;53.46
63088;BME280;49173;43.164;27.786;2023-08-08T06:15:49;100367.78;;;23.55;53.32
63088;BME280;49173;43.164;27.786;2023-08-08T06:18:16;100359.78;;;23.62;53.43
63088;BME280;49173;43.164;27.786;2023-08-08T06:20:43;100367.66;;;23.73;53.00
63088;BME280;49173;43.164;27.786;2023-08-08T06:23:09;100369.88;;;23.69;52.81
63088;BME280;49173;43.164;27.786;2023-08-08T06:25:35;100372.78;;;23.68;53.17
63088;BME280;49173;43.164;27.786;2023-08-08T06:28:01;100377.94;;;23.71;53.37
63088;BME280;49173;43.164;27.786;2023-08-08T06:30:27;100373.66;;;23.76;53.13
63088;BME280;49173;43.164;27.786;2023-08-08T06:32:53;100380.19;;;23.75;52.93
63088;BME280;49173;43.164;27.786;2023-08-08T06:35:18;100399.69;;;23.72;52.58
63088;BME280;49173;43.164;27.786;2023-08-08T06:37:44;100382.56;;;23.70;52.15
63088;BME280;49173;43.164;27.786;2023-08-08T06:40:11;100393.84;;;23.67;52.09
63088;BME280;49173;43.164;27.786;2023-08-08T06:42:37;100382.03;;;23.67;52.29
63088;BME280;49173;43.164;27.786;2023-08-08T06:45:03;100389.75;;;23.63;52.19
63088;BME280;49173;43.164;27.786;2023-08-08T06:47:29;100393.50;;;23.62;52.46
63088;BME280;49173;43.164;27.786;2023-08-08T06:49:55;100394.19;;;23.64;52.03
63088;BME280;49173;43.164;27.786;2023-08-08T06:52:22;100389.06;;;23.61;51.68
63088;BME280;49173;43.164;27.786;2023-08-08T06:54:47;100401.16;;;23.58;51.87
63088;BME280;49173;43.164;27.786;2023-08-08T06:57:13;100395.84;;;23.57;51.57
63088;BME280;49173;43.164;27.786;2023-08-08T06:59:39;100404.06;;;23.57;52.15
63088;BME280;49173;43.164;27.786;2023-08-08T07:02:05;100400.31;;;23.58;52.58
63088;BME280;49173;43.164;27.786;2023-08-08T07:04:31;100396.41;;;23.61;52.39
63088;BME280;49173;43.164;27.786;2023-08-08T07:06:57;100399.00;;;23.62;52.62
63088;BME280;49173;43.164;27.786;2023-08-08T07:09:22;100403.09;;;23.66;52.08
63088;BME280;49173;43.164;27.786;2023-08-08T07:11:48;100403.81;;;23.68;52.21
63088;BME280;49173;43.164;27.786;2023-08-08T07:14:14;100400.19;;;23.68;51.89
63088;BME280;49173;43.164;27.786;2023-08-08T07:16:40;100410.47;;;23.74;51.76
63088;BME280;49173;43.164;27.786;2023-08-08T07:19:06;100403.66;;;23.86;51.65
63088;BME280;49173;43.164;27.786;2023-08-08T07:21:32;100402.97;;;23.92;50.12
63088;BME280;49173;43.164;27.786;2023-08-08T07:23:57;100412.72;;;23.95;50.51
63088;BME280;49173;43.164;27.786;2023-08-08T07:26:23;100413.44;;;23.97;50.64
63088;BME280;49173;43.164;27.786;2023-08-08T07:28:49;100413.44;;;23.97;50.19
63088;BME280;49173;43.164;27.786;2023-08-08T07:31:14;100417.53;;;23.93;50.44
63088;BME280;49173;43.164;27.786;2023-08-08T07:33:40;100423.03;;;23.93;50.44
63088;BME280;49173;43.164;27.786;2023-08-08T07:36:06;100429.03;;;23.96;50.40
63088;BME280;49173;43.164;27.786;2023-08-08T07:38:32;100436.91;;;23.99;50.92
63088;BME280;49173;43.164;27.786;2023-08-08T07:40:58;100447.03;;;23.99;51.12
63088;BME280;49173;43.164;27.786;2023-08-08T07:43:26;100438.44;;;23.94;50.85
63088;BME280;49173;43.164;27.786;2023-08-08T07:45:53;100445.44;;;23.88;51.10
63088;BME280;49173;43.164;27.786;2023-08-08T07:48:19;100439.09;;;23.88;50.60
63088;BME280;49173;43.164;27.786;2023-08-08T07:50:44;100444.94;;;23.84;50.56
63088;BME280;49173;43.164;27.786;2023-08-08T07:53:10;100434.47;;;23.88;51.21
63088;BME280;49173;43.164;27.786;2023-08-08T07:55:36;100445.13;;;23.91;51.19
63088;BME280;49173;43.164;27.786;2023-08-08T07:58:04;100434.00;;;23.93;51.31
63088;BME280;49173;43.164;27.786;2023-08-08T08:00:29;100439.81;;;23.98;51.48
63088;BME280;49173;43.164;27.786;2023-08-08T08:02:56;100427.16;;;24.05;51.11
63088;BME280;49173;43.164;27.786;2023-08-08T08:05:21;100438.47;;;24.18;51.14
63088;BME280;49173;43.164;27.786;2023-08-08T08:07:48;100435.19;;;24.31;50.66
63088;BME280;49173;43.164;27.786;2023-08-08T08:10:13;100435.09;;;24.41;50.50
63088;BME280;49173;43.164;27.786;2023-08-08T08:12:40;100426.16;;;24.55;50.49
63088;BME280;49173;43.164;27.786;2023-08-08T08:15:08;100424.44;;;24.62;50.21
63088;BME280;49173;43.164;27.786;2023-08-08T08:17:34;100422.03;;;24.67;49.50
63088;BME280;49173;43.164;27.786;2023-08-08T08:20:00;100424.59;;;24.60;49.63
63088;BME280;49173;43.164;27.786;2023-08-08T08:22:31;100423.41;;;24.63;49.79
63088;BME280;49173;43.164;27.786;2023-08-08T08:24:57;100425.63;;;24.68;49.95
63088;BME280;49173;43.164;27.786;2023-08-08T08:27:23;100418.56;;;24.73;49.46
63088;BME280;49173;43.164;27.786;2023-08-08T08:29:49;100418.22;;;24.76;49.68
63088;BME280;49173;43.164;27.786;2023-08-08T08:32:14;100421.31;;;24.81;49.51
63088;BME280;49173;43.164;27.786;2023-08-08T08:34:40;100426.44;;;24.84;49.25
63088;BME280;49173;43.164;27.786;2023-08-08T08:37:07;100429.19;;;24.84;49.48
63088;BME280;49173;43.164;27.786;2023-08-08T08:39:33;100426.63;;;24.83;49.53
63088;BME280;49173;43.164;27.786;2023-08-08T08:42:00;100423.03;;;24.82;49.46
63088;BME280;49173;43.164;27.786;2023-08-08T08:44:31;100420.94;;;24.84;49.81
63088;BME280;49173;43.164;27.786;2023-08-08T08:47:04;100415.47;;;24.84;49.58
63088;BME280;49173;43.164;27.786;2023-08-08T08:49:38;100416.50;;;24.83;49.17
63088;BME280;49173;43.164;27.786;2023-08-08T08:52:04;100412.72;;;24.84;49.55
63088;BME280;49173;43.164;27.786;2023-08-08T08:54:32;100409.97;;;24.84;49.39
63088;BME280;49173;43.164;27.786;2023-08-08T08:56:58;100425.06;;;24.80;49.05
63088;BME280;49173;43.164;27.786;2023-08-08T08:59:24;100423.53;;;24.78;49.39
63088;BME280;49173;43.164;27.786;2023-08-08T09:01:51;100432.47;;;24.72;49.61
63088;BME280;49173;43.164;27.786;2023-08-08T09:04:19;100423.03;;;24.66;49.37
63088;BME280;49173;43.164;27.786;2023-08-08T09:06:47;100434.19;;;24.64;49.71
63088;BME280;49173;43.164;27.786;2023-08-08T09:09:13;100425.63;;;24.59;49.58
63088;BME280;49173;43.164;27.786;2023-08-08T09:11:49;100440.38;;;24.58;49.90
63088;BME280;49173;43.164;27.786;2023-08-08T09:14:23;100451.53;;;24.57;49.99
63088;BME280;49173;43.164;27.786;2023-08-08T09:16:51;100451.03;;;24.53;49.82
63088;BME280;49173;43.164;27.786;2023-08-08T09:19:21;100449.13;;;24.54;49.58
63088;BME280;49173;43.164;27.786;2023-08-08T09:21:47;100454.28;;;24.49;49.91
63088;BME280;49173;43.164;27.786;2023-08-08T09:24:14;100460.97;;;24.46;50.30
63088;BME280;49173;43.164;27.786;2023-08-08T09:26:41;100449.16;;;24.46;49.73
63088;BME280;49173;43.164;27.786;2023-08-08T09:29:08;100444.50;;;24.38;49.87
63088;BME280;49173;43.164;27.786;2023-08-08T09:31:35;100442.28;;;24.33;50.50
63088;BME280;49173;43.164;27.786;2023-08-08T09:34:03;100451.38;;;24.34;50.78
63088;BME280;49173;43.164;27.786;2023-08-08T09:36:30;100445.31;;;24.30;51.29
63088;BME280;49173;43.164;27.786;2023-08-08T09:38:56;100450.50;;;24.25;51.29
63088;BME280;49173;43.164;27.786;2023-08-08T09:41:22;100461.78;;;24.22;51.72
63088;BME280;49173;43.164;27.786;2023-08-08T09:43:50;100449.59;;;24.17;51.87
63088;BME280;49173;43.164;27.786;2023-08-08T09:46:16;100441.03;;;24.11;51.54
63088;BME280;49173;43.164;27.786;2023-08-08T09:48:42;100440.00;;;24.04;51.97
63088;BME280;49173;43.164;27.786;2023-08-08T09:51:09;100449.41;;;24.02;52.13
63088;BME280;49173;43.164;27.786;2023-08-08T09:53:35;100452.50;;;23.99;52.07
63088;BME280;49173;43.164;27.786;2023-08-08T09:56:05;100439.97;;;23.88;52.15
63088;BME280;49173;43.164;27.786;2023-08-08T09:58:32;100443.72;;;23.87;52.23
63088;BME280;49173;43.164;27.786;2023-08-08T10:00:58;100445.97;;;23.83;52.19
63088;BME280;49173;43.164;27.786;2023-08-08T10:03:25;100451.09;;;23.78;52.48
63088;BME280;49173;43.164;27.786;2023-08-08T10:05:54;100450.41;;;23.76;52.73
63088;BME280;49173;43.164;27.786;2023-08-08T10:08:21;100447.47;;;23.70;53.04
63088;BME280;49173;43.164;27.786;2023-08-08T10:10:48;100448.34;;;23.70;52.59
63088;BME280;49173;43.164;27.786;2023-08-08T10:13:26;100454.84;;;23.69;53.11
63088;BME280;49173;43.164;27.786;2023-08-08T10:15:53;100454.66;;;23.71;53.30
63088;BME280;49173;43.164;27.786;2023-08-08T10:18:22;100456.56;;;23.70;52.68
63088;BME280;49173;43.164;27.786;2023-08-08T10:20:49;100447.78;;;23.67;52.92
63088;BME280;49173;43.164;27.786;2023-08-08T10:23:17;100439.06;;;23.63;53.20
63088;BME280;49173;43.164;27.786;2023-08-08T10:25:46;100445.56;;;23.62;53.11
63088;BME280;49173;43.164;27.786;2023-08-08T10:28:15;100452.09;;;23.61;53.05
63088;BME280;49173;43.164;27.786;2023-08-08T10:30:47;100468.53;;;23.61;53.32
63088;BME280;49173;43.164;27.786;2023-08-08T10:33:22;100471.09;;;23.63;53.19
63088;BME280;49173;43.164;27.786;2023-08-08T10:35:57;100469.66;;;23.58;53.37
63088;BME280;49173;43.164;27.786;2023-08-08T10:38:24;100471.19;;;23.53;53.55
63088;BME280;49173;43.164;27.786;2023-08-08T10:40:58;100470.19;;;23.54;53.31
63088;BME280;49173;43.164;27.786;2023-08-08T10:43:28;100484.03;;;23.52;53.32
63088;BME280;49173;43.164;27.786;2023-08-08T10:46:01;100491.56;;;23.50;53.36
63088;BME280;49173;43.164;27.786;2023-08-08T10:48:27;100490.69;;;23.50;52.84
63088;BME280;49173;43.164;27.786;2023-08-08T10:51:00;100482.66;;;23.48;53.30
63088;BME280;49173;43.164;27.786;2023-08-08T10:53:28;100493.06;;;23.45;53.28
63088;BME280;49173;43.164;27.786;2023-08-08T10:56:01;100498.88;;;23.42;53.21
63088;BME280;49173;43.164;27.786;2023-08-08T10:58:40;100502.97;;;23.38;53.46
63088;BME280;49173;43.164;27.786;2023-08-08T11:01:06;100492.81;;;23.30;53.28
63088;BME280;49173;43.164;27.786;2023-08-08T11:03:40;100499.28;;;23.21;53.65
63088;BME280;49173;43.164;27.786;2023-08-08T11:06:07;100498.59;;;23.19;53.57
63088;BME280;49173;43.164;27.786;2023-08-08T11:08:34;100497.53;;;23.12;55.28
63088;BME280;49173;43.164;27.786;2023-08-08T11:11:02;100500.91;;;23.06;56.69
63088;BME280;49173;43.164;27.786;2023-08-08T11:13:29;100502.25;;;23.01;59.43
63088;BME280;49173;43.164;27.786;2023-08-08T11:15:55;100504.94;;;22.93;59.32
63088;BME280;49173;43.164;27.786;2023-08-08T11:18:21;100507.03;;;22.82;59.93
63088;BME280;49173;43.164;27.786;2023-08-08T11:20:48;100503.38;;;22.73;60.99
63088;BME280;49173;43.164;27.786;2023-08-08T11:23:15;100505.91;;;22.66;61.26
63088;BME280;49173;43.164;27.786;2023-08-08T11:25:44;100493.25;;;22.65;62.57
63088;BME280;49173;43.164;27.786;2023-08-08T11:28:11;100496.44;;;22.61;62.50
63088;BME280;49173;43.164;27.786;2023-08-08T11:30:40;100487.88;;;22.56;62.08
63088;BME280;49173;43.164;27.786;2023-08-08T11:33:07;100495.00;;;22.48;63.69
63088;BME280;49173;43.164;27.786;2023-08-08T11:35:33;100488.09;;;22.44;64.73
63088;BME280;49173;43.164;27.786;2023-08-08T11:38:03;100499.03;;;22.44;65.11
63088;BME280;49173;43.164;27.786;2023-08-08T11:40:32;100494.09;;;22.48;66.30
63088;BME280;49173;43.164;27.786;2023-08-08T11:42:58;100499.50;;;22.58;67.67
63088;BME280;49173;43.164;27.786;2023-08-08T11:45:31;100483.38;;;22.72;68.63
63088;BME280;49173;43.164;27.786;2023-08-08T11:48:03;100482.50;;;22.90;67.39
63088;BME280;49173;43.164;27.786;2023-08-08T11:50:36;100484.19;;;23.17;67.13
63088;BME280;49173;43.164;27.786;2023-08-08T11:53:06;100482.63;;;23.40;65.11
63088;BME280;49173;43.164;27.786;2023-08-08T11:55:38;100477.25;;;23.65;64.16
63088;BME280;49173;43.164;27.786;2023-08-08T11:58:15;100472.00;;;23.88;63.80
63088;BME280;49173;43.164;27.786;2023-08-08T12:00:45;100470.16;;;23.96;62.32
63088;BME280;49173;43.164;27.786;2023-08-08T12:03:15;100465.19;;;24.08;60.00
63088;BME280;49173;43.164;27.786;2023-08-08T12:05:46;100458.19;;;24.22;58.81
63088;BME280;49173;43.164;27.786;2023-08-08T12:08:21;100450.50;;;24.33;57.91
63088;BME280;49173;43.164;27.786;2023-08-08T12:10:53;100443.13;;;24.42;57.31
63088;BME280;49173;43.164;27.786;2023-08-08T12:13:25;100433.84;;;24.51;56.28
63088;BME280;49173;43.164;27.786;2023-08-08T12:15:53;100415.16;;;24.63;54.81
63088;BME280;49173;43.164;27.786;2023-08-08T12:18:19;100421.31;;;24.73;53.12
63088;BME280;49173;43.164;27.786;2023-08-08T12:20:48;100413.06;;;24.81;52.52
63088;BME280;49173;43.164;27.786;2023-08-08T12:23:18;100415.63;;;24.91;51.35
63088;BME280;49173;43.164;27.786;2023-08-08T12:25:51;100407.53;;;24.98;50.85
63088;BME280;49173;43.164;27.786;2023-08-08T12:28:18;100418.69;;;25.04;50.26
63088;BME280;49173;43.164;27.786;2023-08-08T12:30:48;100402.38;;;25.11;48.19
63088;BME280;49173;43.164;27.786;2023-08-08T12:33:16;100403.00;;;25.21;49.29
63088;BME280;49173;43.164;27.786;2023-08-08T12:35:42;100399.22;;;25.30;48.32
63088;BME280;49173;43.164;27.786;2023-08-08T12:38:14;100397.56;;;25.44;47.61
63088;BME280;49173;43.164;27.786;2023-08-08T12:40:43;100400.09;;;25.54;47.06
63088;BME280;49173;43.164;27.786;2023-08-08T12:43:19;100390.03;;;25.69;44.70